Time;durP1;ratioP1;P1;durP2;ratioP2;P2;SDS_P1;SDS_P2;PMS_P1;PMS_P2;Temp;Humidity;BMP_temperature;BMP_pressure;BME280_temperature;BME280_humidity;BME280_pressure;Samples;Min_cycle;Max_cycle;Signal;HPM_P1;HPM_P2
2022/08/21 00:00:13;;;;;;;9.80;6.28;;;;;;;23.36;71.28;100298.13;1750440;81;25912;-75
2022/08/21 00:02:52;;;;;;;9.80;6.00;;;;;;;23.30;71.25;100295.11;1741452;81;26842;-75
2022/08/21 00:05:20;;;;;;;12.07;5.97;;;;;;;23.24;71.30;100297.58;1749563;81;26303;-75
2022/08/21 00:07:47;;;;;;;8.10;5.47;;;;;;;23.20;71.43;100296.50;1749953;81;25720;-75
2022/08/21 00:10:14;;;;;;;8.83;5.70;;;;;;;23.15;71.54;100293.23;1750607;81;25805;-75
2022/08/21 00:12:41;;;;;;;8.18;5.87;;;;;;;23.08;71.54;100291.86;1750288;81;25789;-75
2022/08/21 00:15:11;;;;;;;9.68;5.85;;;;;;;22.99;71.56;100295.16;1750275;81;27438;-75
2022/08/21 00:17:38;;;;;;;9.25;5.87;;;;;;;22.97;71.78;100295.98;1750754;81;25806;-75
2022/08/21 00:20:08;;;;;;;6.67;5.58;;;;;;;22.95;71.84;100286.42;1750435;81;26502;-75
2022/08/21 00:22:36;;;;;;;6.12;5.33;;;;;;;22.93;71.85;100293.53;1750589;81;26315;-75
2022/08/21 00:25:07;;;;;;;8.70;5.62;;;;;;;22.89;71.96;100289.72;1750769;81;25938;-75
2022/08/21 00:27:34;;;;;;;;;;;;;;;22.88;71.94;100286.70;1753076;81;28243;-75
2022/08/21 00:30:01;;;;;;;7.75;5.55;;;;;;;22.86;72.13;100275.23;1750357;81;25709;-75
2022/08/21 00:32:29;;;;;;;12.23;5.95;;;;;;;22.83;72.08;100279.90;1750674;81;25725;-75
2022/08/21 00:34:56;;;;;;;6.85;5.83;;;;;;;22.83;72.09;100274.98;1750720;81;26572;-75
2022/08/21 00:37:24;;;;;;;8.03;5.67;;;;;;;22.83;72.04;100277.17;1750455;81;25709;-74
2022/08/21 00:39:51;;;;;;;7.90;5.62;;;;;;;22.79;72.04;100277.45;1748533;81;27529;-75
2022/08/21 00:42:19;;;;;;;7.95;5.67;;;;;;;22.74;72.08;100271.98;1750934;81;25754;-75
2022/08/21 00:44:49;;;;;;;6.15;5.50;;;;;;;22.71;72.17;100275.25;1750735;81;25820;-75
2022/08/21 00:47:18;;;;;;;14.00;6.07;;;;;;;22.70;72.27;100267.34;1750504;81;26038;-75
2022/08/21 00:49:44;;;;;;;11.05;6.12;;;;;;;22.68;72.39;100257.23;1750553;81;25454;-75
2022/08/21 00:52:16;;;;;;;8.65;6.12;;;;;;;22.65;72.48;100261.33;1750417;81;27610;-75
2022/08/21 00:54:43;;;;;;;6.37;5.70;;;;;;;22.63;72.50;100259.42;1749989;81;25919;-75
2022/08/21 00:57:17;;;;;;;7.70;6.05;;;;;;;22.60;72.47;100256.43;1750827;80;25732;-75
2022/08/21 00:59:47;;;;;;;7.62;5.58;;;;;;;22.58;72.63;100260.74;1714800;82;25756;-75
2022/08/21 01:02:13;;;;;;;;;;;;;;;22.55;72.72;100253.66;1752899;81;26389;-75
2022/08/21 01:04:40;;;;;;;12.80;6.00;;;;;;;22.51;73.00;100252.57;1751152;81;27431;-75
2022/08/21 01:07:07;;;;;;;7.67;6.40;;;;;;;22.44;72.99;100250.65;1750141;81;25734;-75
2022/08/21 01:09:34;;;;;;;8.95;6.90;;;;;;;22.42;73.11;100255.03;1751413;81;26408;-75
2022/08/21 01:12:00;;;;;;;6.50;5.83;;;;;;;22.41;73.27;100249.85;1674552;84;25843;-75
2022/08/21 01:14:28;;;;;;;8.13;6.55;;;;;;;22.41;73.30;100244.39;1701895;84;25794;-75
2022/08/21 01:16:56;;;;;;;8.38;6.10;;;;;;;22.38;73.42;100249.84;1750390;81;26928;-74
2022/08/21 01:19:23;;;;;;;8.20;6.17;;;;;;;22.36;73.59;100238.92;1750933;81;26370;-75
2022/08/21 01:21:50;;;;;;;8.78;6.17;;;;;;;22.33;73.59;100246.27;1750524;80;25799;-74
2022/08/21 01:24:17;;;;;;;7.75;6.10;;;;;;;22.32;73.76;100239.20;1750965;81;27270;-75
2022/08/21 01:26:44;;;;;;;8.73;6.45;;;;;;;22.27;73.92;100248.19;1750434;81;25760;-75
2022/08/21 01:29:24;;;;;;;7.30;6.08;;;;;;;22.21;73.95;100243.83;1750932;81;27458;-75
2022/08/21 01:31:51;;;;;;;9.38;6.67;;;;;;;22.15;74.10;100244.34;1745256;81;25898;-74
2022/08/21 01:34:17;;;;;;;8.28;6.58;;;;;;;22.11;74.22;100242.46;1750819;81;26148;-75
2022/08/21 01:36:46;;;;;;;7.40;6.05;;;;;;;22.07;74.39;100244.06;1750478;81;25756;-75
2022/08/21 01:39:15;;;;;;;8.50;6.53;;;;;;;22.05;74.49;100238.89;1715976;83;25806;-75
2022/08/21 01:41:42;;;;;;;8.10;5.78;;;;;;;22.05;74.57;100239.42;1750465;81;27510;-75
2022/08/21 01:44:08;;;;;;;9.25;6.70;;;;;;;22.05;74.75;100236.70;1746171;81;25840;-75
2022/08/21 01:46:35;;;;;;;9.38;6.60;;;;;;;22.02;74.70;100235.36;1747077;81;25796;-75
2022/08/21 01:49:02;;;;;;;9.65;6.55;;;;;;;22.01;74.68;100232.34;1750535;81;25787;-75
2022/08/21 01:51:28;;;;;;;8.95;6.58;;;;;;;22.00;74.69;100231.25;1750671;81;25726;-75
2022/08/21 01:53:55;;;;;;;8.00;5.80;;;;;;;21.97;74.73;100227.16;1750803;81;27447;-75
2022/08/21 01:56:22;;;;;;;11.88;7.03;;;;;;;21.97;74.77;100228.52;1750678;81;26471;-75
2022/08/21 01:58:48;;;;;;;7.62;6.17;;;;;;;21.94;74.71;100229.05;1750782;81;25843;-75
2022/08/21 02:01:15;;;;;;;11.68;6.00;;;;;;;21.93;74.71;100226.59;1750866;81;26539;-75
2022/08/21 02:03:42;;;;;;;8.53;6.42;;;;;;;21.92;74.71;100230.42;1751064;80;26558;-75
2022/08/21 02:06:17;;;;;;;9.08;6.40;;;;;;;21.91;74.78;100229.60;1750502;81;27469;-75
2022/08/21 02:08:43;;;;;;;9.53;6.65;;;;;;;21.89;74.85;100226.33;1750994;81;25758;-75
2022/08/21 02:11:09;;;;;;;8.85;6.08;;;;;;;21.90;74.85;100229.31;1711477;83;26324;-75
2022/08/21 02:13:36;;;;;;;7.03;5.90;;;;;;;21.88;74.80;100223.31;1750448;81;26451;-75
2022/08/21 02:16:03;;;;;;;8.05;5.75;;;;;;;21.87;74.85;100221.69;1749977;81;26333;-75
2022/08/21 02:18:29;;;;;;;8.23;6.00;;;;;;;21.86;74.92;100215.12;1750596;81;27439;-75
2022/08/21 02:20:55;;;;;;;7.87;6.10;;;;;;;21.85;75.06;100212.96;1750592;81;25904;-75
2022/08/21 02:23:23;;;;;;;7.28;5.70;;;;;;;21.84;75.01;100213.20;1743634;81;25758;-75
2022/08/21 02:25:49;;;;;;;9.58;6.85;;;;;;;21.84;75.15;100214.57;1751497;80;26342;-75
2022/08/21 02:28:16;;;;;;;8.50;6.55;;;;;;;21.84;75.17;100212.67;1751040;81;25559;-74
2022/08/21 02:30:47;;;;;;;9.78;6.42;;;;;;;21.85;75.31;100202.59;1751271;81;27429;-75
2022/08/21 02:33:14;;;;;;;8.48;6.33;;;;;;;21.87;75.26;100201.23;1751108;81;25826;-75
2022/08/21 02:35:43;;;;;;;7.95;5.70;;;;;;;21.90;75.35;100195.76;1751267;81;25760;-75
2022/08/21 02:38:15;;;;;;;8.20;5.92;;;;;;;21.90;75.37;100199.85;1750903;81;25906;-75
2022/08/21 02:40:45;;;;;;;10.08;6.80;;;;;;;21.90;75.35;100193.03;1750161;81;26161;-75
2022/08/21 02:43:12;;;;;;;6.53;5.15;;;;;;;21.88;75.38;100185.13;1751005;81;28285;-74
2022/08/21 02:45:40;;;;;;;6.72;5.80;;;;;;;21.89;75.38;100185.95;1750966;81;26375;-75
2022/08/21 02:48:11;;;;;;;7.80;6.25;;;;;;;21.88;75.49;100185.13;1745529;81;25796;-75
2022/08/21 02:50:42;;;;;;;6.92;5.78;;;;;;;21.86;75.42;100183.22;1749099;81;25746;-74
2022/08/21 02:53:15;;;;;;;9.48;5.30;;;;;;;21.85;75.59;100184.33;1750967;81;26418;-75
2022/08/21 02:55:40;;;;;;;6.90;5.12;;;;;;;21.84;75.60;100185.41;1751001;81;27468;-75
2022/08/21 02:58:08;;;;;;;6.92;5.50;;;;;;;21.85;75.66;100182.97;1750513;81;26479;-75
2022/08/21 03:00:36;;;;;;;5.42;4.90;;;;;;;21.86;75.56;100184.59;1751161;81;25765;-75
2022/08/21 03:03:04;;;;;;;6.37;5.33;;;;;;;21.89;75.60;100183.23;1751363;80;25827;-75
2022/08/21 03:05:32;;;;;;;6.50;5.90;;;;;;;21.89;75.73;100175.05;1746238;81;25331;-75
2022/08/21 03:08:01;;;;;;;7.22;5.65;;;;;;;21.90;75.64;100173.41;1744769;81;28248;-75
2022/08/21 03:10:30;;;;;;;7.75;5.92;;;;;;;21.91;75.53;100175.59;1751300;81;26013;-75
2022/08/21 03:12:57;;;;;;;8.43;5.33;;;;;;;21.91;75.54;100182.41;1750855;81;26113;-75
2022/08/21 03:15:24;;;;;;;9.23;5.92;;;;;;;21.91;75.56;100177.78;1750912;81;25860;-75
2022/08/21 03:17:52;;;;;;;6.87;5.60;;;;;;;21.90;75.57;100176.13;1751071;81;25832;-74
2022/08/21 03:20:23;;;;;;;6.62;5.70;;;;;;;21.89;75.64;100174.52;1751365;81;27471;-75
2022/08/21 03:22:51;;;;;;;7.10;6.00;;;;;;;21.87;75.67;100171.23;1751178;81;26369;-75
2022/08/21 03:25:18;;;;;;;9.08;7.47;;;;;;;21.86;75.68;100170.95;1751521;81;26521;-75
2022/08/21 03:27:48;;;;;;;8.95;5.42;;;;;;;21.85;75.69;100173.42;1746847;81;25734;-75
2022/08/21 03:30:16;;;;;;;6.97;6.12;;;;;;;21.84;75.73;100173.67;1751366;81;25265;-75
2022/08/21 03:32:43;;;;;;;7.60;5.87;;;;;;;21.83;75.71;100172.05;1746963;81;28257;-75
2022/08/21 03:35:10;;;;;;;7.33;6.00;;;;;;;21.83;75.72;100174.77;1741549;81;26464;-75
2022/08/21 03:37:36;;;;;;;9.05;5.92;;;;;;;21.80;75.74;100174.73;1739286;81;25862;-75
2022/08/21 03:40:07;;;;;;;9.40;5.92;;;;;;;21.80;75.74;100176.63;1719756;81;26262;-75
2022/08/21 03:42:34;;;;;;;6.37;5.78;;;;;;;21.78;75.74;100180.17;1753661;80;25873;-75
2022/08/21 03:45:02;;;;;;;7.45;5.55;;;;;;;21.75;75.80;100182.89;1751599;80;27446;-75
2022/08/21 03:47:28;;;;;;;6.75;6.05;;;;;;;21.73;75.82;100176.89;1745469;80;25765;-75
2022/08/21 03:49:54;;;;;;;9.78;6.37;;;;;;;21.70;75.88;100187.00;1748344;80;26334;-74
2022/08/21 03:52:21;;;;;;;9.05;5.72;;;;;;;21.69;75.91;100181.25;1754217;80;26612;-75
2022/08/21 03:54:47;;;;;;;8.48;6.00;;;;;;;21.68;75.96;100182.89;1751490;81;25734;-75
2022/08/21 03:57:14;;;;;;;7.37;5.75;;;;;;;21.67;76.06;100185.33;1746292;81;27442;-75
2022/08/21 03:59:40;;;;;;;8.90;5.70;;;;;;;21.64;76.10;100188.61;1744815;80;25827;-75
2022/08/21 04:02:07;;;;;;;7.37;6.20;;;;;;;21.61;76.24;100185.05;1746290;81;26553;-75
2022/08/21 04:04:34;;;;;;;11.83;6.28;;;;;;;21.61;76.35;100185.87;1743155;80;26454;-75
2022/08/21 04:07:02;;;;;;;9.00;7.33;;;;;;;21.60;76.49;100188.31;1715986;81;26388;-74
2022/08/21 04:09:30;;;;;;;8.53;6.60;;;;;;;21.58;76.50;100189.69;1706536;83;27470;-75
2022/08/21 04:11:57;;;;;;;10.35;5.92;;;;;;;21.60;76.73;100193.76;1748548;80;26494;-75
2022/08/21 04:14:23;;;;;;;8.68;6.20;;;;;;;21.62;76.83;100185.34;1721358;81;25895;-75
2022/08/21 04:16:49;;;;;;;9.03;5.92;;;;;;;21.66;76.91;100182.34;1757554;80;25911;-75
2022/08/21 04:19:16;;;;;;;7.95;6.50;;;;;;;21.69;76.96;100185.34;1743110;81;25930;-75
2022/08/21 04:21:42;;;;;;;7.62;6.17;;;;;;;21.73;77.05;100181.52;1745922;80;28134;-74
2022/08/21 04:24:10;;;;;;;6.75;5.70;;;;;;;21.69;76.92;100179.89;1739999;81;25755;-75
2022/08/21 04:26:39;;;;;;;7.25;5.87;;;;;;;21.71;77.06;100176.88;1744306;80;26378;-74
2022/08/21 04:29:06;;;;;;;7.58;6.05;;;;;;;21.74;77.07;100186.72;1750632;81;25855;-75
2022/08/21 04:31:36;;;;;;;7.65;5.72;;;;;;;21.75;77.12;100181.53;1744708;80;25865;-75
2022/08/21 04:34:04;;;;;;;7.17;5.60;;;;;;;21.77;77.22;100182.08;1748950;81;27407;-75
2022/08/21 04:36:33;;;;;;;9.08;5.92;;;;;;;21.76;77.31;100181.82;1745884;81;26499;-75
2022/08/21 04:38:59;;;;;;;6.80;6.05;;;;;;;21.80;77.33;100183.45;1741277;81;25753;-75
2022/08/21 04:41:26;;;;;;;6.37;5.70;;;;;;;21.80;77.47;100182.91;1746350;81;25768;-75
2022/08/21 04:43:54;;;;;;;8.08;5.65;;;;;;;21.80;77.54;100182.09;1748585;81;25719;-74
2022/08/21 04:46:22;;;;;;;8.63;5.67;;;;;;;21.80;77.71;100183.45;1747522;81;27468;-75
2022/08/21 04:48:48;;;;;;;8.05;5.58;;;;;;;21.84;77.89;100183.22;1745981;81;26346;-75
2022/08/21 04:51:19;;;;;;;10.20;5.83;;;;;;;21.86;78.00;100180.50;1746125;81;25831;-75
2022/08/21 04:53:51;;;;;;;12.18;5.28;;;;;;;21.91;77.83;100187.88;1723860;81;25766;-74
2022/08/21 04:56:31;;;;;;;7.85;5.37;;;;;;;21.91;77.83;100187.33;1694441;84;25939;-75
2022/08/21 04:59:03;;;;;;;10.05;5.97;;;;;;;21.94;77.75;100180.52;1695023;84;27412;-75
2022/08/21 05:01:33;;;;;;;9.45;5.80;;;;;;;21.93;77.58;100179.70;1697827;84;25976;-76
2022/08/21 05:04:04;;;;;;;10.25;6.45;;;;;;;21.92;77.51;100182.13;1688074;83;25416;-75
2022/08/21 05:06:34;;;;;;;10.40;5.55;;;;;;;21.93;77.58;100175.61;1741772;81;25867;-75
2022/08/21 05:09:01;;;;;;;7.25;5.53;;;;;;;21.97;77.64;100182.16;1751269;81;25901;-75
2022/08/21 05:11:30;;;;;;;10.23;5.62;;;;;;;21.98;77.62;100176.95;1745503;80;27448;-75
2022/08/21 05:13:56;;;;;;;12.05;6.10;;;;;;;21.97;77.47;100182.69;1748070;81;26497;-75
2022/08/21 05:16:22;;;;;;;5.92;5.33;;;;;;;21.98;77.52;100179.68;1748052;80;25748;-75
2022/08/21 05:18:50;;;;;;;8.33;5.65;;;;;;;22.00;77.37;100185.71;1745514;81;25784;-75
2022/08/21 05:21:16;;;;;;;8.30;6.40;;;;;;;22.01;77.13;100185.97;1743145;81;25770;-75
2022/08/21 05:23:42;;;;;;;6.42;5.03;;;;;;;22.01;77.22;100181.88;1745288;81;27444;-76
2022/08/21 05:26:09;;;;;;;7.60;5.87;;;;;;;22.04;77.27;100185.98;1748217;80;25792;-76
2022/08/21 05:28:35;;;;;;;7.50;5.40;;;;;;;22.04;77.24;100188.17;1745027;80;25720;-75
2022/08/21 05:31:01;;;;;;;11.30;6.53;;;;;;;22.06;77.20;100189.25;1751309;81;25987;-75
2022/08/21 05:33:28;;;;;;;7.83;6.83;;;;;;;22.04;76.95;100189.53;1751555;81;25758;-75
2022/08/21 05:36:00;;;;;;;8.45;5.83;;;;;;;22.02;77.01;100186.80;1751447;81;27526;-75
2022/08/21 05:38:28;;;;;;;7.70;6.03;;;;;;;22.04;77.12;100186.80;1750681;81;25705;-75
2022/08/21 05:40:55;;;;;;;10.98;6.35;;;;;;;22.09;77.29;100184.06;1739563;81;25840;-75
2022/08/21 05:43:21;;;;;;;6.45;5.67;;;;;;;22.15;77.37;100184.33;1751799;81;25811;-75
2022/08/21 05:45:48;;;;;;;6.62;5.92;;;;;;;22.21;77.27;100192.81;1751324;81;25693;-76
2022/08/21 05:48:18;;;;;;;8.73;5.42;;;;;;;22.24;77.26;100193.61;1751293;81;27431;-75
2022/08/21 05:50:47;;;;;;;8.85;6.37;;;;;;;22.26;77.23;100194.16;1751583;81;25707;-75
2022/08/21 05:53:16;;;;;;;7.00;6.30;;;;;;;22.28;77.24;100197.17;1751341;81;25264;-76
2022/08/21 05:55:44;;;;;;;8.80;6.25;;;;;;;22.26;77.08;100197.45;1751055;81;25836;-75
2022/08/21 05:58:14;;;;;;;8.90;6.17;;;;;;;22.28;77.44;100202.89;1712747;83;25770;-75
2022/08/21 06:00:40;;;;;;;10.18;6.33;;;;;;;22.32;77.43;100205.09;1750971;81;27508;-75
2022/08/21 06:03:15;;;;;;;7.75;6.20;;;;;;;22.34;77.45;100199.63;1749140;81;25991;-75
2022/08/21 06:05:41;;;;;;;7.45;6.17;;;;;;;22.37;77.42;100205.09;1745150;80;25779;-76
2022/08/21 06:08:07;;;;;;;7.60;6.72;;;;;;;22.38;77.36;100203.98;1749561;81;26331;-75
2022/08/21 06:10:34;;;;;;;9.20;6.37;;;;;;;22.40;77.42;100202.63;1748064;80;25284;-75
2022/08/21 06:13:01;;;;;;;6.87;6.17;;;;;;;22.43;77.65;100204.82;1742421;81;27501;-75
2022/08/21 06:15:27;;;;;;;9.55;6.67;;;;;;;22.50;77.73;100206.70;1750316;81;25729;-76
2022/08/21 06:17:56;;;;;;;8.93;6.30;;;;;;;22.56;77.80;100208.91;1750506;81;25911;-75
2022/08/21 06:20:23;;;;;;;7.28;6.30;;;;;;;22.61;77.70;100211.64;1751545;81;25919;-75
2022/08/21 06:22:49;;;;;;;7.95;5.97;;;;;;;22.64;77.68;100216.02;1751597;81;25909;-75
2022/08/21 06:25:16;;;;;;;7.95;6.28;;;;;;;22.69;77.57;100219.30;1744902;81;28196;-75
2022/08/21 06:27:42;;;;;;;6.45;5.55;;;;;;;22.74;77.78;100220.63;1749665;81;25842;-75
2022/08/21 06:30:10;;;;;;;8.75;6.03;;;;;;;22.82;77.91;100220.89;1741573;81;25283;-75
2022/08/21 06:32:37;;;;;;;10.58;6.78;;;;;;;22.89;77.84;100222.80;1748956;80;25812;-75
2022/08/21 06:35:06;;;;;;;11.78;7.33;;;;;;;22.97;77.56;100220.86;1747823;81;25693;-74
2022/08/21 06:37:32;;;;;;;7.05;6.35;;;;;;;23.01;77.04;100226.04;1736948;81;28398;-74
2022/08/21 06:39:58;;;;;;;8.68;6.10;;;;;;;23.03;77.12;100223.84;1742818;81;25752;-74
2022/08/21 06:42:27;;;;;;;7.00;6.30;;;;;;;23.09;76.89;100234.23;1739971;81;25895;-74
2022/08/21 06:44:56;;;;;;;8.28;5.90;;;;;;;23.16;76.98;100233.94;1751397;81;26464;-74
2022/08/21 06:47:23;;;;;;;8.10;5.72;;;;;;;23.23;76.81;100237.17;1750432;81;26419;-74
2022/08/21 06:49:49;;;;;;;9.13;6.40;;;;;;;23.30;76.85;100228.14;1746120;80;27964;-74
2022/08/21 06:52:16;;;;;;;8.73;6.55;;;;;;;23.34;76.61;100235.54;1741795;81;25820;-74
2022/08/21 06:54:43;;;;;;;7.70;6.50;;;;;;;23.45;76.92;100230.30;1747762;81;25757;-75
2022/08/21 06:57:09;;;;;;;7.28;6.50;;;;;;;23.56;77.00;100227.80;1748842;81;25762;-74
2022/08/21 06:59:35;;;;;;;6.45;5.83;;;;;;;23.64;76.58;100227.75;1744613;81;25761;-74
2022/08/21 07:02:02;;;;;;;7.67;6.05;;;;;;;23.67;76.61;100225.26;1741267;81;27503;-74
2022/08/21 07:04:28;;;;;;;9.10;6.03;;;;;;;23.75;76.19;100229.33;1739577;81;25799;-74
2022/08/21 07:06:55;;;;;;;11.40;6.45;;;;;;;23.83;76.35;100222.44;1742665;81;25891;-74
2022/08/21 07:09:21;;;;;;;10.60;6.47;;;;;;;23.89;76.91;100215.86;1742891;81;26532;-74
2022/08/21 07:11:51;;;;;;;7.03;6.33;;;;;;;23.93;76.05;100219.09;1698572;84;25766;-75
2022/08/21 07:14:18;;;;;;;8.10;6.87;;;;;;;23.99;75.91;100213.87;1696743;84;27448;-74
2022/08/21 07:16:44;;;;;;;8.40;6.67;;;;;;;23.98;75.29;100214.96;1693321;84;25834;-74
2022/08/21 07:19:10;;;;;;;11.48;7.30;;;;;;;23.98;75.14;100216.33;1698093;84;25749;-74
2022/08/21 07:21:37;;;;;;;6.78;6.08;;;;;;;24.00;75.04;100207.83;1745502;81;26553;-74
2022/08/21 07:24:03;;;;;;;8.18;6.03;;;;;;;24.01;75.42;100210.30;1737126;81;25808;-74
2022/08/21 07:26:30;;;;;;;8.43;6.50;;;;;;;24.04;74.81;100207.02;1743439;81;27497;-75
2022/08/21 07:28:56;;;;;;;6.90;6.05;;;;;;;24.06;75.00;100205.38;1713204;83;26019;-74
2022/08/21 07:31:26;;;;;;;7.22;6.12;;;;;;;24.07;75.02;100208.37;1746316;81;25874;-74
2022/08/21 07:33:53;;;;;;;8.55;5.97;;;;;;;24.08;75.22;100206.70;1741237;81;25795;-75
2022/08/21 07:36:20;;;;;;;9.18;6.53;;;;;;;24.11;74.96;100201.22;1742682;81;25909;-74
2022/08/21 07:38:47;;;;;;;7.72;6.33;;;;;;;24.10;74.29;100200.97;1745317;81;27461;-74
2022/08/21 07:41:21;;;;;;;8.70;6.00;;;;;;;24.16;74.55;100200.65;1737804;81;25798;-74
2022/08/21 07:43:47;;;;;;;7.70;5.22;;;;;;;24.25;74.70;100203.59;1747939;81;25221;-74
2022/08/21 07:46:14;;;;;;;6.95;5.35;;;;;;;24.34;74.44;100189.53;1743242;80;25759;-74
2022/08/21 07:48:41;;;;;;;8.05;5.62;;;;;;;24.42;74.22;100190.30;1748158;81;25686;-74
2022/08/21 07:51:12;;;;;;;7.22;5.85;;;;;;;24.48;73.90;100191.89;1741662;81;27437;-75
2022/08/21 07:53:39;;;;;;;7.00;5.37;;;;;;;24.54;73.77;100189.36;1750152;81;25761;-74
2022/08/21 07:56:08;;;;;;;8.78;6.08;;;;;;;24.62;73.82;100183.80;1750171;80;25744;-75
2022/08/21 07:58:34;;;;;;;9.33;5.70;;;;;;;24.68;73.79;100180.72;1750566;81;26539;-74
2022/08/21 08:01:01;;;;;;;8.15;5.40;;;;;;;24.77;74.00;100172.17;1749656;81;25859;-74
2022/08/21 08:03:27;;;;;;;7.50;5.10;;;;;;;24.85;74.06;100170.73;1741600;81;27573;-74
2022/08/21 08:05:54;;;;;;;6.15;5.55;;;;;;;24.93;74.04;100168.72;1750207;81;26515;-74
2022/08/21 08:08:20;;;;;;;10.25;6.00;;;;;;;24.98;73.53;100170.84;1750443;80;25771;-75
2022/08/21 08:10:49;;;;;;;6.20;5.53;;;;;;;25.00;73.36;100169.20;1750312;81;25765;-75
2022/08/21 08:13:16;;;;;;;8.55;5.97;;;;;;;25.08;73.83;100165.80;1740322;81;25722;-74
2022/08/21 08:15:42;;;;;;;5.33;4.83;;;;;;;25.15;74.11;100167.06;1746257;81;27459;-74
2022/08/21 08:18:09;;;;;;;6.33;5.60;;;;;;;25.20;73.95;100168.39;1750176;81;25977;-74
2022/08/21 08:20:35;;;;;;;5.80;5.20;;;;;;;25.28;73.61;100162.79;1750537;81;25682;-75
2022/08/21 08:23:02;;;;;;;5.50;5.00;;;;;;;25.37;73.55;100168.44;1751049;81;25822;-74
2022/08/21 08:25:29;;;;;;;7.75;5.28;;;;;;;25.40;72.81;100170.60;1751119;81;25236;-74
2022/08/21 08:27:55;;;;;;;6.92;5.42;;;;;;;25.43;72.58;100168.69;1750118;81;27445;-74
2022/08/21 08:30:23;;;;;;;5.53;4.87;;;;;;;25.49;72.61;100171.62;1750485;81;26409;-75
2022/08/21 08:32:50;;;;;;;10.13;5.33;;;;;;;25.53;72.37;100169.36;1745465;80;26410;-74
2022/08/21 08:35:17;;;;;;;6.72;4.67;;;;;;;25.59;71.81;100176.95;1750587;81;25799;-74
2022/08/21 08:37:45;;;;;;;7.67;4.83;;;;;;;25.63;71.44;100176.07;1750003;81;25906;-74
2022/08/21 08:40:20;;;;;;;5.85;5.28;;;;;;;25.69;71.81;100179.55;1751150;81;27484;-74
2022/08/21 08:42:47;;;;;;;6.10;5.40;;;;;;;25.73;71.40;100181.95;1748999;81;25968;-74
2022/08/21 08:45:18;;;;;;;6.05;5.20;;;;;;;25.76;70.57;100179.45;1750295;81;25935;-74
2022/08/21 08:47:51;;;;;;;5.67;5.17;;;;;;;25.78;70.27;100177.22;1749585;81;25918;-74
2022/08/21 08:50:44;;;;;;;8.75;5.90;;;;;;;25.79;70.63;100169.23;1741096;81;25803;-74
2022/08/21 08:53:28;;;;;;;8.33;5.08;;;;;;;25.85;70.37;100166.67;1711861;81;27507;-74
2022/08/21 08:55:56;;;;;;;7.60;4.90;;;;;;;25.90;70.63;100172.09;1743367;81;26422;-74
2022/08/21 08:58:30;;;;;;;7.08;5.35;;;;;;;25.94;70.06;100169.00;1750539;81;25777;-74
2022/08/21 09:00:59;;;;;;;5.75;5.03;;;;;;;25.95;69.74;100171.20;1750819;81;25754;-74
2022/08/21 09:03:28;;;;;;;7.37;4.90;;;;;;;26.01;70.19;100168.08;1747340;81;25731;-74
2022/08/21 09:06:31;;;;;;;7.70;4.60;;;;;;;26.11;70.40;100169.86;1745146;81;28306;-74
2022/08/21 09:09:42;;;;;;;7.00;4.75;;;;;;;26.19;69.88;100167.83;1750206;81;25879;-75
2022/08/21 09:12:41;;;;;;;8.38;4.62;;;;;;;26.29;69.67;100170.40;1730780;80;26772;-75
2022/08/21 09:15:22;;;;;;;6.15;4.28;;;;;;;26.31;68.68;100160.48;1686530;83;25848;-75
2022/08/21 09:18:29;;;;;;;8.45;4.37;;;;;;;26.34;68.48;100159.89;1697191;83;26502;-75
2022/08/21 09:21:21;;;;;;;5.28;4.10;;;;;;;26.42;68.32;100160.56;1691680;83;27461;-75
2022/08/21 09:24:01;;;;;;;8.48;4.53;;;;;;;26.50;67.42;100159.86;1692855;83;25915;-75
2022/08/21 09:26:50;;;;;;;7.67;4.55;;;;;;;26.57;67.48;100161.11;1690459;83;37281;-75
2022/08/21 09:29:20;;;;;;;4.55;3.90;;;;;;;26.67;67.63;100154.59;1692759;83;26549;-75
2022/08/21 09:31:47;;;;;;;7.03;4.20;;;;;;;26.79;67.15;100151.40;1694076;84;26373;-75
2022/08/21 09:34:19;;;;;;;5.30;3.92;;;;;;;26.82;66.89;100154.92;1693494;83;27476;-75
2022/08/21 09:36:49;;;;;;;6.20;3.77;;;;;;;26.83;66.01;100148.30;1660926;83;26497;-75
2022/08/21 09:39:33;;;;;;;7.80;3.40;;;;;;;26.83;65.60;100147.73;1669072;85;26306;-75
2022/08/21 09:42:03;;;;;;;3.95;3.55;;;;;;;26.93;64.71;100146.70;1669729;85;26020;-75
2022/08/21 09:44:38;;;;;;;4.92;3.58;;;;;;;26.98;64.49;100151.56;1669500;85;25829;-75
2022/08/21 09:47:03;;;;;;;5.80;4.47;;;;;;;27.09;64.42;100149.42;1697878;83;27020;-75
2022/08/21 09:52:48;;;;;;;7.53;3.47;;;;;;;27.34;64.22;100145.58;1719429;81;26628;-74
2022/08/21 09:58:11;;;;;;;4.97;3.22;;;;;;;27.59;63.89;100147.55;1735663;81;25882;-73
2022/08/21 10:00:38;;;;;;;5.25;3.35;;;;;;;27.63;63.24;100146.59;1742645;81;27691;-74
2022/08/21 10:03:12;;;;;;;6.20;3.25;;;;;;;27.64;62.48;100146.04;1755794;80;25782;-75
2022/08/21 10:05:42;;;;;;;5.15;3.05;;;;;;;27.64;61.69;100146.04;1739276;81;25864;-74
2022/08/21 10:08:18;;;;;;;4.90;3.50;;;;;;;27.59;61.78;100146.17;1762046;80;25811;-74
2022/08/21 10:10:45;;;;;;;4.78;4.15;;;;;;;27.60;61.77;100144.48;1756121;80;26570;-74
2022/08/21 10:13:28;;;;;;;5.65;4.00;;;;;;;27.61;63.21;100148.84;1764756;80;27459;-74
2022/08/21 10:16:09;;;;;;;6.35;3.85;;;;;;;27.67;63.06;100148.19;1733857;81;26476;-74
2022/08/21 10:19:20;;;;;;;6.42;3.80;;;;;;;27.69;64.19;100144.55;1760792;79;25977;-74
2022/08/21 10:22:19;;;;;;;7.70;4.28;;;;;;;27.75;62.98;100143.31;1741615;80;26448;-74
2022/08/21 10:24:59;;;;;;;5.58;4.00;;;;;;;27.74;63.20;100140.29;1767571;80;25860;-74
2022/08/21 10:27:29;;;;;;;;;;;;;;;27.73;63.14;100144.19;1771004;79;27503;-74
2022/08/21 10:30:13;;;;;;;4.70;4.30;;;;;;;27.67;62.50;100138.00;1752220;80;25815;-74
2022/08/21 10:33:01;;;;;;;4.65;3.77;;;;;;;27.56;62.90;100144.03;1729560;81;25895;-74
2022/08/21 10:35:43;;;;;;;5.97;4.67;;;;;;;27.55;63.24;100139.64;1776620;79;27035;-75
2022/08/21 10:38:34;;;;;;;5.30;3.60;;;;;;;27.59;62.33;100135.95;1760687;79;26424;-75
2022/08/21 10:41:37;;;;;;;6.08;3.65;;;;;;;27.66;62.19;100143.79;1772263;79;27530;-75
2022/08/21 10:44:31;;;;;;;5.20;3.80;;;;;;;27.66;61.50;100142.41;1760303;79;25956;-75
2022/08/21 10:47:15;;;;;;;7.45;3.75;;;;;;;27.73;62.43;100138.68;1762157;79;25268;-74
2022/08/21 10:50:15;;;;;;;6.70;3.80;;;;;;;27.81;61.52;100140.68;1774658;79;25862;-75
2022/08/21 10:52:53;;;;;;;4.08;3.65;;;;;;;27.85;61.69;100138.93;1771165;79;25281;-75
2022/08/21 10:58:30;;;;;;;5.15;3.92;;;;;;;27.91;62.27;100141.80;1774887;80;25782;-75
2022/08/21 11:01:02;;;;;;;7.12;3.62;;;;;;;27.99;61.49;100142.49;1734944;81;25723;-75
2022/08/21 11:03:42;;;;;;;7.90;4.00;;;;;;;28.02;60.72;100140.47;1774178;79;26569;-75
2022/08/21 11:06:17;;;;;;;5.42;3.60;;;;;;;28.05;60.21;100139.86;1773336;79;25957;-75
2022/08/21 11:08:50;;;;;;;4.28;3.62;;;;;;;28.11;59.59;100138.05;1763446;79;28083;-74
2022/08/21 11:11:33;;;;;;;6.78;3.47;;;;;;;28.14;59.58;100129.13;1787309;79;25840;-75
2022/08/21 11:14:43;;;;;;;7.50;4.50;;;;;;;28.18;59.80;100132.91;1745887;80;25359;-75
2022/08/21 11:17:13;;;;;;;7.08;3.80;;;;;;;28.15;59.57;100128.02;1749494;80;25851;-76
2022/08/21 11:20:07;;;;;;;5.12;3.85;;;;;;;28.15;57.76;100135.47;1779461;79;25873;-76
2022/08/21 11:22:45;;;;;;;4.87;3.50;;;;;;;28.09;57.67;100127.09;1775779;79;28265;-76
2022/08/21 11:25:19;;;;;;;4.85;3.47;;;;;;;28.07;57.63;100130.72;1731424;81;26196;-76
2022/08/21 11:27:54;;;;;;;5.65;3.25;;;;;;;28.05;57.95;100137.92;1754796;80;26357;-75
2022/08/21 11:30:22;;;;;;;5.60;3.30;;;;;;;28.07;57.61;100126.59;1783526;79;25793;-75
2022/08/21 11:32:59;;;;;;;4.78;3.17;;;;;;;28.06;57.37;100123.57;1784999;79;26463;-75
2022/08/21 11:36:10;;;;;;;3.65;2.85;;;;;;;28.02;56.10;100127.52;1780695;79;27451;-75
2022/08/21 11:38:45;;;;;;;6.67;3.33;;;;;;;27.97;56.72;100122.72;1771477;79;26025;-75
2022/08/21 11:41:29;;;;;;;5.47;3.50;;;;;;;27.96;56.96;100123.80;1777363;80;26067;-75
2022/08/21 11:44:16;;;;;;;3.55;2.98;;;;;;;27.98;57.74;100120.20;1752376;80;25807;-75
2022/08/21 11:46:58;;;;;;;6.45;2.77;;;;;;;27.95;57.20;100126.32;1781065;79;25791;-75
2022/08/21 11:49:56;;;;;;;3.92;2.98;;;;;;;27.87;56.59;100123.73;1782379;79;28623;-76